createdAt,value
2019-04-16T00:02:19.852Z,21.70
2019-04-16T00:04:58.474Z,18.10
2019-04-16T00:07:45.357Z,18.32
2019-04-16T00:10:39.693Z,18.47
2019-04-16T00:13:18.741Z,20.87
2019-04-16T00:15:48.282Z,19.17
2019-04-16T00:18:18.776Z,16.83
2019-04-16T00:21:11.049Z,18.40
2019-04-16T00:24:02.712Z,20.87
2019-04-16T00:26:32.216Z,17.57
2019-04-16T00:29:02.899Z,17.03
2019-04-16T00:31:34.285Z,17.83
2019-04-16T00:34:04.434Z,17.13
2019-04-16T00:36:33.900Z,16.90
2019-04-16T00:39:03.598Z,22.40
2019-04-16T00:41:33.367Z,16.73
2019-04-16T00:44:02.604Z,20.73
2019-04-16T00:46:31.812Z,20.47
2019-04-16T00:49:01.331Z,15.47
2019-04-16T00:51:30.647Z,17.20
2019-04-16T00:53:59.941Z,17.33
2019-04-16T00:56:29.243Z,19.57
2019-04-16T00:58:58.590Z,17.80
2019-04-16T01:01:27.815Z,19.53
2019-04-16T01:03:57.107Z,22.27
2019-04-16T01:06:26.720Z,15.50
2019-04-16T01:08:55.892Z,20.97
2019-04-16T01:11:25.526Z,18.40
2019-04-16T01:13:55.682Z,15.43
2019-04-16T01:16:26.271Z,20.70
2019-04-16T01:18:55.512Z,21.80
2019-04-16T01:21:24.772Z,18.73
2019-04-16T01:23:53.995Z,19.50
2019-04-16T01:26:24.196Z,18.73
2019-04-16T01:29:06.096Z,17.87
2019-04-16T01:32:07.420Z,15.80
2019-04-16T01:35:01.147Z,18.20
2019-04-16T01:37:39.378Z,18.77
2019-04-16T01:40:09.310Z,16.00
2019-04-16T01:42:38.619Z,16.62
2019-04-16T01:45:08.289Z,16.73
2019-04-16T01:47:37.536Z,20.40
2019-04-16T01:50:07.311Z,15.45
2019-04-16T01:52:36.532Z,18.13
2019-04-16T01:55:05.997Z,17.83
2019-04-16T01:57:35.286Z,17.57
2019-04-16T02:00:08.097Z,16.27
2019-04-16T02:02:37.615Z,21.77
2019-04-16T02:05:07.029Z,16.73
2019-04-16T02:07:36.262Z,18.17
2019-04-16T02:10:07.535Z,18.40
2019-04-16T02:12:36.781Z,20.07
2019-04-16T02:15:06.475Z,17.77
2019-04-16T02:17:35.707Z,14.17
2019-04-16T02:20:06.867Z,16.53
2019-04-16T02:22:36.232Z,16.82
2019-04-16T02:25:06.224Z,17.60
2019-04-16T02:27:35.558Z,17.80
2019-04-16T02:30:05.921Z,20.30
2019-04-16T02:32:35.692Z,18.30
2019-04-16T02:35:05.325Z,18.75
2019-04-16T02:37:36.446Z,18.83
2019-04-16T02:40:06.910Z,18.93
2019-04-16T02:42:36.332Z,15.57
2019-04-16T02:45:05.892Z,21.50
2019-04-16T02:47:40.045Z,20.72
2019-04-16T02:50:08.693Z,18.13
2019-04-16T02:53:01.339Z,19.33
2019-04-16T02:55:44.181Z,22.17
2019-04-16T02:58:17.953Z,18.60
2019-04-16T03:01:24.495Z,20.40
2019-04-16T03:03:58.702Z,19.43
2019-04-16T03:06:31.646Z,17.17
2019-04-16T03:08:59.302Z,16.03
2019-04-16T03:11:28.528Z,15.70
2019-04-16T03:13:59.367Z,15.90
2019-04-16T03:16:46.669Z,19.10
2019-04-16T03:19:21.030Z,18.97
2019-04-16T03:21:50.255Z,16.83
2019-04-16T03:24:19.756Z,17.77
2019-04-16T03:26:50.549Z,17.20
2019-04-16T03:29:19.999Z,20.03
2019-04-16T03:31:57.298Z,14.87
2019-04-16T03:34:22.059Z,17.80
2019-04-16T03:36:51.693Z,15.00
2019-04-16T03:39:20.956Z,18.53
2019-04-16T03:41:50.195Z,16.70
2019-04-16T03:44:19.727Z,23.70
2019-04-16T03:46:49.020Z,17.20
2019-04-16T03:49:18.522Z,20.57
2019-04-16T03:51:47.741Z,17.60
2019-04-16T03:54:18.859Z,18.10
2019-04-16T03:56:48.783Z,21.00
2019-04-16T03:59:20.137Z,18.90
2019-04-16T04:01:49.418Z,19.47
2019-04-16T04:04:18.748Z,17.55
2019-04-16T04:06:48.237Z,17.48
2019-04-16T04:09:18.838Z,18.52
2019-04-16T04:11:48.725Z,17.42
2019-04-16T04:14:22.096Z,22.17
2019-04-16T04:16:48.964Z,16.85
2019-04-16T04:19:18.344Z,18.75
2019-04-16T04:21:50.548Z,20.27
2019-04-16T04:24:20.649Z,19.17
2019-04-16T04:26:49.930Z,20.73
2019-04-16T04:29:20.713Z,18.80
2019-04-16T04:31:51.192Z,16.67
2019-04-16T04:34:21.309Z,19.03
2019-04-16T04:36:50.661Z,17.23
2019-04-16T04:39:20.668Z,17.15
2019-04-16T04:41:52.614Z,16.17
2019-04-16T04:44:21.073Z,19.03
2019-04-16T04:46:50.240Z,19.87
2019-04-16T04:49:19.803Z,21.43
2019-04-16T04:51:49.373Z,16.33
2019-04-16T04:54:22.029Z,20.20
2019-04-16T04:56:49.864Z,19.67
2019-04-16T04:59:19.148Z,20.57
2019-04-16T05:01:48.321Z,17.80
2019-04-16T05:04:42.663Z,16.33
2019-04-16T05:07:12.189Z,16.93
2019-04-16T05:09:41.443Z,18.30
2019-04-16T05:12:10.717Z,17.67
2019-04-16T05:14:51.047Z,21.10
2019-04-16T05:17:20.771Z,22.40
2019-04-16T05:19:50.225Z,15.90
2019-04-16T05:22:21.794Z,23.70
2019-04-16T05:24:52.517Z,17.50
2019-04-16T05:27:22.080Z,16.67
2019-04-16T05:29:51.248Z,17.23
2019-04-16T05:32:20.485Z,21.33
2019-04-16T05:34:49.868Z,19.43
2019-04-16T05:37:19.951Z,19.37
2019-04-16T05:39:50.592Z,19.05
2019-04-16T05:42:24.791Z,22.47
2019-04-16T05:44:51.432Z,17.73
2019-04-16T05:47:20.949Z,20.50
2019-04-16T05:49:50.211Z,18.87
2019-04-16T05:52:19.643Z,18.83
2019-04-16T05:55:03.491Z,17.50
2019-04-16T05:57:35.249Z,17.97
2019-04-16T06:00:10.064Z,20.87
2019-04-16T06:02:42.138Z,18.87
2019-04-16T06:05:17.402Z,16.93
2019-04-16T06:07:47.165Z,17.03
2019-04-16T06:10:17.783Z,21.10
2019-04-16T06:13:02.033Z,17.00
2019-04-16T06:15:41.231Z,15.05
2019-04-16T06:18:29.410Z,17.90
2019-04-16T06:21:09.754Z,16.97
2019-04-16T06:24:03.131Z,16.83
2019-04-16T06:26:44.455Z,22.97
2019-04-16T06:29:43.393Z,28.93
2019-04-16T06:32:34.575Z,22.93
2019-04-16T06:35:28.041Z,17.90
2019-04-16T06:38:06.220Z,16.77
2019-04-16T06:41:03.224Z,20.67
2019-04-16T06:43:35.884Z,23.70
2019-04-16T06:46:27.305Z,17.77
2019-04-16T06:49:30.552Z,17.00
2019-04-16T06:52:24.472Z,17.50
2019-04-16T06:55:15.721Z,15.87
2019-04-16T06:58:02.626Z,19.40
2019-04-16T07:00:49.954Z,16.70
2019-04-16T07:03:34.274Z,19.87
2019-04-16T07:06:08.471Z,18.10
2019-04-16T07:08:50.080Z,21.10
2019-04-16T07:11:19.567Z,13.77
2019-04-16T07:13:48.864Z,17.50
2019-04-16T07:16:18.355Z,15.63
2019-04-16T07:18:47.552Z,17.87
2019-04-16T07:21:17.528Z,21.63
2019-04-16T07:23:47.839Z,15.40
2019-04-16T07:26:17.723Z,14.80
2019-04-16T07:29:02.227Z,20.63
2019-04-16T07:31:38.463Z,21.27
2019-04-16T07:34:32.890Z,29.07
2019-04-16T07:37:09.771Z,17.33
2019-04-16T07:39:58.489Z,19.00
2019-04-16T07:42:51.220Z,14.27
2019-04-16T07:45:26.059Z,17.37
2019-04-16T07:48:13.113Z,17.37
2019-04-16T07:51:13.373Z,17.00
2019-04-16T07:54:02.513Z,19.10
2019-04-16T07:56:31.596Z,17.77
2019-04-16T07:59:01.789Z,16.83
2019-04-16T08:01:31.651Z,20.57
2019-04-16T08:04:02.619Z,25.57
2019-04-16T08:06:32.148Z,15.40
2019-04-16T08:09:01.355Z,17.07
2019-04-16T08:11:31.884Z,22.37
2019-04-16T08:14:08.634Z,20.95
2019-04-16T08:16:46.603Z,19.50
2019-04-16T08:19:06.413Z,23.53
2019-04-16T08:21:35.888Z,18.20
2019-04-16T08:24:17.039Z,17.10
2019-04-16T08:26:46.625Z,20.90
2019-04-16T08:29:15.937Z,18.47
2019-04-16T08:31:46.969Z,14.57
2019-04-16T08:34:16.457Z,18.30
2019-04-16T08:36:45.668Z,19.83
2019-04-16T08:39:15.298Z,18.70
2019-04-16T08:41:44.556Z,17.97
2019-04-16T08:44:13.802Z,14.90
2019-04-16T08:46:43.075Z,17.40
2019-04-16T08:49:15.264Z,14.65
2019-04-16T08:51:44.441Z,16.77
2019-04-16T08:54:17.679Z,16.33
2019-04-16T08:56:44.597Z,17.67
2019-04-16T08:59:13.875Z,15.90
2019-04-16T09:01:43.096Z,16.50
2019-04-16T09:04:12.393Z,17.27
2019-04-16T09:06:42.609Z,17.77
2019-04-16T09:09:40.472Z,14.63
2019-04-16T09:12:10.298Z,16.03
2019-04-16T09:14:43.782Z,18.00
2019-04-16T09:17:24.812Z,18.27
2019-04-16T09:20:07.245Z,18.80
2019-04-16T09:22:48.745Z,17.37
2019-04-16T09:25:29.266Z,16.55
2019-04-16T09:28:07.661Z,17.90
2019-04-16T09:30:53.223Z,17.45
2019-04-16T09:33:40.035Z,18.37
2019-04-16T09:36:15.306Z,17.27
2019-04-16T09:38:47.367Z,18.43
2019-04-16T09:41:25.812Z,17.40
2019-04-16T09:43:58.062Z,17.35
2019-04-16T09:46:49.705Z,18.83
2019-04-16T09:48:58.987Z,14.80
2019-04-16T09:51:29.094Z,16.07
2019-04-16T09:53:58.292Z,16.32
2019-04-16T09:56:29.689Z,17.20
2019-04-16T09:59:03.311Z,18.97
2019-04-16T10:01:44.663Z,19.07
2019-04-16T10:04:16.487Z,19.67
2019-04-16T10:06:46.007Z,16.77
2019-04-16T10:09:19.832Z,17.40
2019-04-16T10:11:46.880Z,14.63
2019-04-16T10:14:16.892Z,17.23
2019-04-16T10:16:46.456Z,13.50
2019-04-16T10:19:15.712Z,16.20
2019-04-16T10:21:44.958Z,15.50
2019-04-16T10:24:35.665Z,21.12
2019-04-16T10:27:05.034Z,20.03
2019-04-16T10:29:34.888Z,16.10
2019-04-16T10:32:04.260Z,15.73
2019-04-16T10:34:36.281Z,17.87
2019-04-16T10:37:07.338Z,19.07
2019-04-16T10:39:42.167Z,15.33
2019-04-16T10:42:22.679Z,15.48
2019-04-16T10:45:09.543Z,16.17
2019-04-16T10:47:53.379Z,18.70
2019-04-16T10:50:56.517Z,15.80
2019-04-16T10:53:50.475Z,14.70
2019-04-16T10:56:37.163Z,16.60
2019-04-16T10:59:28.459Z,13.70
2019-04-16T11:02:19.457Z,16.93
2019-04-16T11:04:54.673Z,17.53
2019-04-16T11:07:26.450Z,13.77
2019-04-16T11:09:56.359Z,15.63
2019-04-16T11:12:25.913Z,17.63
2019-04-16T11:14:55.171Z,21.53
2019-04-16T11:17:26.033Z,16.43
2019-04-16T11:19:59.856Z,17.27
2019-04-16T11:22:27.713Z,13.00
2019-04-16T11:24:57.027Z,12.73
2019-04-16T11:27:26.494Z,14.90
2019-04-16T11:29:56.000Z,13.17
2019-04-16T11:32:27.710Z,15.87
2019-04-16T11:34:57.294Z,18.53
2019-04-16T11:37:26.545Z,18.63
2019-04-16T11:39:55.738Z,14.73
2019-04-16T11:42:25.057Z,16.17
2019-04-16T11:44:56.929Z,15.23
2019-04-16T11:47:28.002Z,14.00
2019-04-16T11:49:57.108Z,12.60
2019-04-16T11:52:27.489Z,12.50
2019-04-16T11:54:56.767Z,13.80
2019-04-16T11:57:26.380Z,12.70
2019-04-16T12:00:06.708Z,14.93
2019-04-16T12:02:45.947Z,12.60
2019-04-16T12:05:30.266Z,16.23
2019-04-16T12:08:25.359Z,10.63
2019-04-16T12:11:16.317Z,15.20
2019-04-16T12:13:53.567Z,11.70
2019-04-16T12:16:39.483Z,11.13
2019-04-16T12:19:26.538Z,11.00
2019-04-16T12:22:04.531Z,9.03
2019-04-16T12:24:55.493Z,9.67
2019-04-16T12:27:42.415Z,10.83
2019-04-16T12:30:29.603Z,10.77
2019-04-16T12:33:17.846Z,10.90
2019-04-16T12:36:15.268Z,10.87
2019-04-16T12:38:58.615Z,9.70
2019-04-16T12:41:41.024Z,8.73
2019-04-16T12:44:25.920Z,8.60
2019-04-16T12:47:12.637Z,11.45
2019-04-16T12:49:59.506Z,9.50
2019-04-16T12:52:51.909Z,13.60
2019-04-16T12:55:55.929Z,9.43
2019-04-16T12:58:43.199Z,9.77
2019-04-16T13:01:36.335Z,9.67
2019-04-16T13:04:27.214Z,10.10
2019-04-16T13:07:18.094Z,9.33
2019-04-16T13:10:16.215Z,8.27
2019-04-16T13:12:59.766Z,8.13
2019-04-16T13:15:40.947Z,8.43
2019-04-16T13:18:29.409Z,7.90
2019-04-16T13:21:17.337Z,9.10
2019-04-16T13:24:09.173Z,9.08
2019-04-16T13:26:56.150Z,8.10
2019-04-16T13:29:29.591Z,10.00
2019-04-16T13:31:57.552Z,10.13
2019-04-16T13:34:26.889Z,11.07
2019-04-16T13:36:59.259Z,9.30
2019-04-16T13:39:42.582Z,9.30
2019-04-16T13:42:11.850Z,8.53
2019-04-16T13:44:45.233Z,8.47
2019-04-16T13:47:14.773Z,10.50
2019-04-16T13:49:49.052Z,8.13
2019-04-16T13:52:24.940Z,8.53
2019-04-16T13:55:09.913Z,9.40
2019-04-16T13:57:38.544Z,8.70
2019-04-16T14:00:22.475Z,8.50
2019-04-16T14:02:57.743Z,7.75
2019-04-16T14:05:26.930Z,8.50
2019-04-16T14:07:56.484Z,9.90
2019-04-16T14:10:25.741Z,10.47
2019-04-16T14:12:55.001Z,8.93
2019-04-16T14:15:32.286Z,9.13
2019-04-16T14:17:59.746Z,8.57
2019-04-16T14:20:29.092Z,11.47
2019-04-16T14:22:58.707Z,9.10
2019-04-16T14:25:28.896Z,10.03
2019-04-16T14:28:02.007Z,9.77
2019-04-16T14:30:35.611Z,9.40
2019-04-16T14:33:07.116Z,10.30
2019-04-16T14:35:40.261Z,9.80
2019-04-16T14:38:09.893Z,10.73
2019-04-16T14:40:41.925Z,9.63
2019-04-16T14:43:11.403Z,9.97
2019-04-16T14:45:57.683Z,9.73
2019-04-16T14:48:18.174Z,9.40
2019-04-16T14:50:47.409Z,14.03
2019-04-16T14:53:51.169Z,10.50
2019-04-16T14:56:27.840Z,9.70
2019-04-16T14:59:08.457Z,10.90
2019-04-16T15:01:45.664Z,10.63
2019-04-16T15:04:23.669Z,10.70
2019-04-16T15:07:24.087Z,13.50
2019-04-16T15:10:04.829Z,12.27
2019-04-16T15:12:44.512Z,15.27
2019-04-16T15:15:21.698Z,19.45
2019-04-16T15:18:02.980Z,15.60
2019-04-16T15:20:51.133Z,14.80
2019-04-16T15:23:36.194Z,13.27
2019-04-16T15:26:22.820Z,12.90
2019-04-16T15:29:17.028Z,15.78
2019-04-16T15:32:04.112Z,12.90
2019-04-16T15:34:42.083Z,13.90
2019-04-16T15:37:13.659Z,12.43
2019-04-16T15:40:07.241Z,11.90
2019-04-16T15:42:52.402Z,13.70
2019-04-16T15:45:39.915Z,13.67
2019-04-16T15:48:27.347Z,12.07
2019-04-16T15:51:15.217Z,11.73
2019-04-16T15:53:50.534Z,11.27
2019-04-16T15:56:39.693Z,13.47
2019-04-16T15:59:14.491Z,14.73
2019-04-16T16:02:02.966Z,13.80
2019-04-16T16:04:43.897Z,13.70
2019-04-16T16:07:23.979Z,13.15
2019-04-16T16:10:19.170Z,15.83
2019-04-16T16:12:50.833Z,13.20
2019-04-16T16:15:19.338Z,9.03
2019-04-16T16:17:48.605Z,15.27
2019-04-16T16:20:17.773Z,13.27
2019-04-16T16:22:47.030Z,14.93
2019-04-16T16:25:16.598Z,12.10
2019-04-16T16:27:47.181Z,11.23
2019-04-16T16:30:18.068Z,14.80
2019-04-16T16:32:49.173Z,12.82
2019-04-16T16:35:18.438Z,12.60
2019-04-16T16:37:47.611Z,18.10
2019-04-16T16:40:18.066Z,14.13
2019-04-16T16:42:47.304Z,15.10
2019-04-16T16:45:21.505Z,14.73
2019-04-16T16:47:50.745Z,12.43
2019-04-16T16:50:19.974Z,15.45
2019-04-16T16:53:06.421Z,18.20
2019-04-16T16:55:39.397Z,13.40
2019-04-16T16:58:39.458Z,15.80
2019-04-16T17:01:35.038Z,16.00
2019-04-16T17:04:11.809Z,14.47
2019-04-16T17:06:41.000Z,16.40
2019-04-16T17:09:17.802Z,17.57
2019-04-16T17:11:47.019Z,17.87
2019-04-16T17:14:18.155Z,15.83
2019-04-16T17:16:47.738Z,15.50
2019-04-16T17:19:17.260Z,14.13
2019-04-16T17:21:47.031Z,15.00
2019-04-16T17:24:16.309Z,17.62
2019-04-16T17:26:46.907Z,15.13
2019-04-16T17:29:16.585Z,15.43
2019-04-16T17:31:45.884Z,18.60
2019-04-16T17:34:15.126Z,21.20
2019-04-16T17:36:44.289Z,18.07
2019-04-16T17:39:15.239Z,22.50
2019-04-16T17:41:51.346Z,17.60
2019-04-16T17:44:50.572Z,17.10
2019-04-16T17:47:33.214Z,19.53
2019-04-16T17:50:17.327Z,19.97
2019-04-16T17:53:04.928Z,21.12
2019-04-16T17:55:52.145Z,24.00
2019-04-16T17:58:31.469Z,18.17
2019-04-16T18:01:32.099Z,21.40
2019-04-16T18:04:20.280Z,22.73
2019-04-16T18:07:08.581Z,26.00
2019-04-16T18:09:44.310Z,20.90
2019-04-16T18:12:36.378Z,22.40
2019-04-16T18:15:24.944Z,21.50
2019-04-16T18:18:07.464Z,27.75
2019-04-16T18:20:56.826Z,25.03
2019-04-16T18:23:39.779Z,21.83
2019-04-16T18:26:31.431Z,24.33
2019-04-16T18:29:03.907Z,23.97
2019-04-16T18:31:56.389Z,24.97
2019-04-16T18:34:40.237Z,20.10
2019-04-16T18:37:32.639Z,18.83
2019-04-16T18:40:23.528Z,18.32
2019-04-16T18:43:17.840Z,21.27
2019-04-16T18:46:15.437Z,23.83
2019-04-16T18:48:45.639Z,21.57
2019-04-16T18:51:15.257Z,26.57
2019-04-16T18:53:44.569Z,20.80
2019-04-16T18:56:14.185Z,19.67
2019-04-16T18:58:44.046Z,21.30
2019-04-16T19:01:17.603Z,21.07
2019-04-16T19:03:47.188Z,21.93
2019-04-16T19:06:16.985Z,23.98
2019-04-16T19:08:46.644Z,24.10
2019-04-16T19:11:16.325Z,20.30
2019-04-16T19:13:48.575Z,23.17
2019-04-16T19:16:21.611Z,21.20
2019-04-16T19:18:51.089Z,18.70
2019-04-16T19:21:20.447Z,19.13
2019-04-16T19:23:53.474Z,21.50
2019-04-16T19:26:22.835Z,18.97
2019-04-16T19:28:52.136Z,19.53
2019-04-16T19:31:23.080Z,20.10
2019-04-16T19:34:26.177Z,22.87
2019-04-16T19:36:59.569Z,19.50
2019-04-16T19:39:29.774Z,12.37
2019-04-16T19:42:06.122Z,10.70
2019-04-16T19:44:39.692Z,11.30
2019-04-16T19:47:29.400Z,8.00
2019-04-16T19:50:15.160Z,8.40
2019-04-16T19:52:45.692Z,7.10
2019-04-16T19:55:15.337Z,7.00
2019-04-16T19:57:44.909Z,7.65
2019-04-16T20:00:14.657Z,7.40
2019-04-16T20:02:44.480Z,6.93
2019-04-16T20:05:15.382Z,6.20
2019-04-16T20:07:45.896Z,5.57
2019-04-16T20:10:15.678Z,5.77
2019-04-16T20:12:45.138Z,10.95
2019-04-16T20:15:14.784Z,5.63
2019-04-16T20:17:44.547Z,4.83
2019-04-16T20:20:13.887Z,4.97
2019-04-16T20:22:44.515Z,5.00
2019-04-16T20:25:14.428Z,5.60
2019-04-16T20:27:43.774Z,5.00
2019-04-16T20:30:14.746Z,5.25
2019-04-16T20:32:44.353Z,5.47
2019-04-16T20:35:17.931Z,5.50
2019-04-16T20:37:44.727Z,5.30
2019-04-16T20:40:17.727Z,4.90
2019-04-16T20:42:47.333Z,4.87
2019-04-16T20:45:16.730Z,4.83
2019-04-16T20:47:46.486Z,5.07
2019-04-16T20:50:20.505Z,5.83
2019-04-16T20:52:49.335Z,4.50
2019-04-16T20:55:18.695Z,5.73
2019-04-16T20:57:47.964Z,5.13
2019-04-16T21:00:22.198Z,4.53
2019-04-16T21:02:51.919Z,5.70
2019-04-16T21:05:22.670Z,5.33
2019-04-16T21:07:52.376Z,4.73
2019-04-16T21:10:22.036Z,5.47
2019-04-16T21:12:54.719Z,5.07
2019-04-16T21:15:23.689Z,4.50
2019-04-16T21:17:53.691Z,4.92
2019-04-16T21:20:22.926Z,5.27
2019-04-16T21:22:52.498Z,4.30
2019-04-16T21:25:21.738Z,3.60
2019-04-16T21:27:57.703Z,3.27
2019-04-16T21:30:27.178Z,4.83
2019-04-16T21:33:02.648Z,3.70
2019-04-16T21:35:37.765Z,7.93
2019-04-16T21:38:34.840Z,3.33
2019-04-16T21:41:04.098Z,3.50
2019-04-16T21:43:35.693Z,4.27
2019-04-16T21:46:04.704Z,3.20
2019-04-16T21:48:34.335Z,3.40
2019-04-16T21:51:03.747Z,3.95
2019-04-16T21:53:36.402Z,4.20
2019-04-16T21:56:08.214Z,4.53
2019-04-16T21:58:36.944Z,4.60
2019-04-16T22:01:35.833Z,8.15
2019-04-16T22:04:14.420Z,4.53
2019-04-16T22:06:42.921Z,4.90
2019-04-16T22:09:12.357Z,5.40
2019-04-16T22:11:44.313Z,4.93
2019-04-16T22:14:13.045Z,5.30
2019-04-16T22:16:45.595Z,5.03
2019-04-16T22:19:16.565Z,4.50
2019-04-16T22:21:46.289Z,4.40
2019-04-16T22:24:15.755Z,6.37
2019-04-16T22:26:45.051Z,4.78
2019-04-16T22:29:15.745Z,4.90
2019-04-16T22:31:45.483Z,4.70
2019-04-16T22:34:14.834Z,4.20
2019-04-16T22:36:44.039Z,4.03
2019-04-16T22:39:36.496Z,3.70
2019-04-16T22:42:26.421Z,5.00
2019-04-16T22:45:18.568Z,4.03
2019-04-16T22:47:48.312Z,5.00
2019-04-16T22:50:17.628Z,4.40
2019-04-16T22:52:46.897Z,4.50
2019-04-16T22:55:16.249Z,4.30
2019-04-16T22:57:45.601Z,3.83
2019-04-16T23:00:29.231Z,5.43
2019-04-16T23:02:58.762Z,4.73
2019-04-16T23:05:30.815Z,3.80
2019-04-16T23:07:59.821Z,4.40
2019-04-16T23:10:29.231Z,7.55
2019-04-16T23:13:00.379Z,3.60
2019-04-16T23:15:29.975Z,4.50
2019-04-16T23:17:59.234Z,5.50
2019-04-16T23:20:36.186Z,4.13
2019-04-16T23:23:03.352Z,4.90
2019-04-16T23:25:32.529Z,3.65
2019-04-16T23:28:01.676Z,4.17
2019-04-16T23:30:31.545Z,4.60
2019-04-16T23:33:01.543Z,3.90
2019-04-16T23:35:31.227Z,5.37
2019-04-16T23:38:01.053Z,4.53
2019-04-16T23:40:30.700Z,4.43
2019-04-16T23:43:23.045Z,4.20
2019-04-16T23:46:10.276Z,4.60
2019-04-16T23:49:04.867Z,4.03
2019-04-16T23:52:01.749Z,3.30
2019-04-16T23:54:36.641Z,3.43
2019-04-16T23:57:16.104Z,4.60
